Time;durP1;ratioP1;P1;durP2;ratioP2;P2;SDS_P1;SDS_P2;PMS_P1;PMS_P2;Temp;Humidity;BMP_temperature;BMP_pressure;BME280_temperature;BME280_humidity;BME280_pressure;Samples;Min_cycle;Max_cycle;Signal;HPM_P1;HPM_P2
2021/06/20 00:01:06;;;;;;;6.43;3.65;;;;;;;;;;8357792;28;20386;-69
2021/06/20 00:05:15;;;;;;;6.25;3.80;;;;;;;;;;8345659;28;20392;-68
2021/06/20 00:09:21;;;;;;;6.68;3.38;;;;;;;;;;8356836;28;20461;-69
2021/06/20 00:13:27;;;;;;;6.07;3.58;;;;;;;;;;8357760;28;20374;-70
2021/06/20 00:17:33;;;;;;;5.72;3.58;;;;;;;;;;8355185;28;20105;-68
2021/06/20 00:21:38;;;;;;;5.25;3.60;;;;;;;;;;8358347;28;20481;-69
2021/06/20 00:25:44;;;;;;;10.32;3.83;;;;;;;;;;8356859;28;20458;-68
2021/06/20 00:29:49;;;;;;;7.20;4.22;;;;;;;;;;8337768;28;20378;-68
2021/06/20 00:33:55;;;;;;;6.57;3.65;;;;;;;;;;8355571;28;20460;-69
2021/06/20 00:38:00;;;;;;;9.07;4.22;;;;;;;;;;8358417;28;20404;-69
2021/06/20 00:42:06;;;;;;;7.22;4.18;;;;;;;;;;8358315;28;20466;-68
2021/06/20 00:46:12;;;;;;;8.13;3.83;;;;;;;;;;8358219;28;20461;-69
2021/06/20 00:50:18;;;;;;;6.43;4.10;;;;;;;;;;8366346;28;20416;-69
2021/06/20 00:54:23;;;;;;;8.23;3.92;;;;;;;;;;8360754;28;20495;-68
2021/06/20 00:58:28;;;;;;;8.95;4.25;;;;;;;;;;8364414;28;20067;-70
2021/06/20 01:02:33;;;;;;;6.60;3.88;;;;;;;;;;8364033;28;20488;-68
2021/06/20 01:06:38;;;;;;;6.45;3.97;;;;;;;;;;8361160;28;20375;-69
2021/06/20 01:10:44;;;;;;;7.07;3.65;;;;;;;;;;8361185;28;20439;-68
2021/06/20 01:14:51;;;;;;;5.80;3.90;;;;;;;;;;8362932;28;20359;-68
2021/06/20 01:18:58;;;;;;;4.30;3.30;;;;;;;;;;8361977;28;20450;-69
2021/06/20 01:23:04;;;;;;;5.10;4.05;;;;;;;;;;8361503;28;20496;-70
2021/06/20 01:27:12;;;;;;;6.05;3.33;;;;;;;;;;8359390;28;20663;-70
2021/06/20 01:31:19;;;;;;;6.30;3.40;;;;;;;;;;8359913;28;20439;-68
2021/06/20 01:35:26;;;;;;;4.55;3.35;;;;;;;;;;8363233;28;20474;-68
2021/06/20 01:39:32;;;;;;;4.50;3.20;;;;;;;;;;8362095;28;20361;-69
2021/06/20 01:43:37;;;;;;;5.70;3.17;;;;;;;;;;8357789;28;20370;-69
2021/06/20 01:47:43;;;;;;;5.32;3.80;;;;;;;;;;8361185;28;20051;-68
2021/06/20 01:51:50;;;;;;;5.35;3.80;;;;;;;;;;8361966;28;20470;-69
2021/06/20 01:55:56;;;;;;;9.27;3.90;;;;;;;;;;8360937;28;20359;-68
2021/06/20 02:00:10;;;;;;;5.43;3.60;;;;;;;;;;8360158;28;20447;-68
2021/06/20 02:04:16;;;;;;;5.35;3.50;;;;;;;;;;8342781;28;20492;-68
2021/06/20 02:08:21;;;;;;;4.25;3.28;;;;;;;;;;8341876;28;20370;-68
2021/06/20 02:12:27;;;;;;;6.38;3.78;;;;;;;;;;8358344;28;20486;-69
2021/06/20 02:16:33;;;;;;;6.57;3.55;;;;;;;;;;8360279;28;20426;-68
2021/06/20 02:20:39;;;;;;;9.73;3.53;;;;;;;;;;8359717;28;20386;-68
2021/06/20 02:24:46;;;;;;;8.68;3.60;;;;;;;;;;8360132;28;20389;-68
2021/06/20 02:28:51;;;;;;;6.07;3.90;;;;;;;;;;8341826;28;20356;-68
2021/06/20 02:32:57;;;;;;;5.30;4.00;;;;;;;;;;8357959;28;20073;-69
2021/06/20 02:37:02;;;;;;;5.78;3.60;;;;;;;;;;8341550;28;20070;-68
2021/06/20 02:41:08;;;;;;;5.75;3.60;;;;;;;;;;8358125;28;20476;-68
2021/06/20 02:45:18;;;;;;;8.38;4.43;;;;;;;;;;8340877;28;20446;-69
2021/06/20 02:49:25;;;;;;;5.78;3.70;;;;;;;;;;8361093;28;20454;-68
2021/06/20 02:53:30;;;;;;;4.65;3.75;;;;;;;;;;8358987;28;20478;-68
2021/06/20 02:57:36;;;;;;;6.30;3.58;;;;;;;;;;8358450;28;20077;-69
2021/06/20 03:01:41;;;;;;;7.32;4.32;;;;;;;;;;8356705;28;20070;-68
2021/06/20 03:05:46;;;;;;;6.90;3.78;;;;;;;;;;8339737;28;20489;-70
2021/06/20 03:09:52;;;;;;;5.90;4.05;;;;;;;;;;8357663;28;20059;-68
2021/06/20 03:13:58;;;;;;;5.60;3.55;;;;;;;;;;8341252;28;20347;-69
2021/06/20 03:18:04;;;;;;;5.57;3.63;;;;;;;;;;8339610;28;20471;-68
2021/06/20 03:22:09;;;;;;;7.07;4.03;;;;;;;;;;8357553;28;20367;-68
2021/06/20 03:26:15;;;;;;;7.55;4.38;;;;;;;;;;8357168;28;20458;-69
2021/06/20 03:30:22;;;;;;;14.30;4.60;;;;;;;;;;8357219;28;20063;-69
2021/06/20 03:34:28;;;;;;;6.60;4.38;;;;;;;;;;8356763;28;20051;-68
2021/06/20 03:38:34;;;;;;;8.57;3.85;;;;;;;;;;8359819;28;20620;-69
2021/06/20 03:42:40;;;;;;;6.45;4.15;;;;;;;;;;8355729;28;20407;-68
2021/06/20 03:46:45;;;;;;;5.57;3.90;;;;;;;;;;8357924;28;20451;-69
2021/06/20 03:50:50;;;;;;;6.55;3.80;;;;;;;;;;8356547;28;20401;-69
2021/06/20 03:54:56;;;;;;;6.00;3.53;;;;;;;;;;8355143;28;20359;-69
2021/06/20 03:59:00;;;;;;;8.98;3.97;;;;;;;;;;8338657;28;20370;-69
2021/06/20 04:03:06;;;;;;;5.25;3.50;;;;;;;;;;8355999;28;20485;-69
2021/06/20 04:07:13;;;;;;;6.25;3.70;;;;;;;;;;8338576;28;20478;-68
2021/06/20 04:11:19;;;;;;;4.73;3.40;;;;;;;;;;8356820;28;20344;-69
2021/06/20 04:15:24;;;;;;;8.00;3.72;;;;;;;;;;8356945;28;20493;-68
2021/06/20 04:19:30;;;;;;;5.32;3.50;;;;;;;;;;8339754;28;20056;-69
2021/06/20 04:23:35;;;;;;;6.80;3.60;;;;;;;;;;8335882;28;20542;-68
2021/06/20 04:27:42;;;;;;;7.28;3.30;;;;;;;;;;8333943;28;20378;-69
2021/06/20 04:31:48;;;;;;;5.40;3.58;;;;;;;;;;8334036;28;20052;-68
2021/06/20 04:35:54;;;;;;;6.95;3.78;;;;;;;;;;8334381;28;20074;-69
2021/06/20 04:39:59;;;;;;;8.35;3.45;;;;;;;;;;8334063;28;20359;-69
2021/06/20 04:44:41;;;;;;;4.75;3.15;;;;;;;;;;8333631;28;20056;-68
2021/06/20 04:48:31;;;;;;;6.07;3.97;;;;;;;;;;8335430;28;20048;-68
2021/06/20 04:52:36;;;;;;;6.07;3.30;;;;;;;;;;8348631;28;20413;-68
2021/06/20 04:56:43;;;;;;;6.05;3.33;;;;;;;;;;8334311;28;20463;-68
2021/06/20 05:00:48;;;;;;;5.50;3.23;;;;;;;;;;8332809;28;20055;-69
2021/06/20 05:04:54;;;;;;;9.98;3.22;;;;;;;;;;8333169;28;20493;-68
2021/06/20 05:08:59;;;;;;;4.38;2.80;;;;;;;;;;8333691;28;20060;-69
2021/06/20 05:13:04;;;;;;;3.95;2.67;;;;;;;;;;8332842;28;20066;-68
2021/06/20 05:17:11;;;;;;;7.68;2.58;;;;;;;;;;8339823;28;20478;-69
2021/06/20 05:21:17;;;;;;;3.50;2.55;;;;;;;;;;8365742;28;20377;-68
2021/06/20 05:25:23;;;;;;;3.47;2.70;;;;;;;;;;8366395;28;20056;-69
2021/06/20 05:29:28;;;;;;;5.40;2.10;;;;;;;;;;8369678;28;20400;-69
2021/06/20 05:33:33;;;;;;;6.30;2.35;;;;;;;;;;8360842;28;20366;-68
2021/06/20 05:37:39;;;;;;;3.40;2.17;;;;;;;;;;8364644;28;20362;-68
2021/06/20 05:41:44;;;;;;;3.40;2.30;;;;;;;;;;8342429;28;20348;-68
2021/06/20 05:45:49;;;;;;;4.15;2.05;;;;;;;;;;8343213;28;20382;-69
2021/06/20 05:49:53;;;;;;;2.28;1.85;;;;;;;;;;8359546;28;20370;-68
2021/06/20 05:53:58;;;;;;;3.42;1.83;;;;;;;;;;8360881;28;20481;-69
2021/06/20 05:58:04;;;;;;;2.45;1.85;;;;;;;;;;8360688;28;20055;-66
2021/06/20 06:02:10;;;;;;;2.47;1.80;;;;;;;;;;8357979;28;20412;-66
2021/06/20 06:06:15;;;;;;;4.70;1.90;;;;;;;;;;8360272;28;20478;-67
2021/06/20 06:10:20;;;;;;;4.20;1.77;;;;;;;;;;8359049;28;20462;-67
2021/06/20 06:14:26;;;;;;;3.50;1.80;;;;;;;;;;8341109;28;20371;-67
2021/06/20 06:18:31;;;;;;;2.42;1.63;;;;;;;;;;8359747;28;20393;-68
2021/06/20 06:22:41;;;;;;;2.80;2.03;;;;;;;;;;8361326;28;20493;-69
2021/06/20 06:26:47;;;;;;;2.80;1.60;;;;;;;;;;8359331;28;20039;-69
2021/06/20 06:30:53;;;;;;;2.17;1.63;;;;;;;;;;8358944;28;21121;-69
2021/06/20 06:34:58;;;;;;;2.42;1.70;;;;;;;;;;8339861;28;20055;-66
2021/06/20 06:39:05;;;;;;;3.60;1.67;;;;;;;;;;8360110;28;20355;-71
2021/06/20 06:43:10;;;;;;;2.43;1.40;;;;;;;;;;8340431;28;20377;-66
2021/06/20 06:47:15;;;;;;;2.08;1.60;;;;;;;;;;8357238;28;20371;-67
2021/06/20 06:51:21;;;;;;;2.08;1.30;;;;;;;;;;8358985;28;20481;-69
2021/06/20 06:55:26;;;;;;;2.10;1.70;;;;;;;;;;8359536;28;20492;-66
2021/06/20 06:59:31;;;;;;;2.85;1.50;;;;;;;;;;8359015;28;20389;-69
2021/06/20 07:03:37;;;;;;;1.67;1.48;;;;;;;;;;8354725;28;20524;-66
2021/06/20 07:07:42;;;;;;;2.75;1.70;;;;;;;;;;8356243;28;20374;-66
2021/06/20 07:11:48;;;;;;;1.85;1.35;;;;;;;;;;8357817;28;20476;-69
2021/06/20 07:15:53;;;;;;;7.75;1.52;;;;;;;;;;8339204;28;20390;-69
2021/06/20 07:19:59;;;;;;;1.75;1.20;;;;;;;;;;8357361;28;20465;-69
2021/06/20 07:24:05;;;;;;;1.33;1.00;;;;;;;;;;8339022;28;20457;-67
2021/06/20 07:28:10;;;;;;;4.22;1.85;;;;;;;;;;8355937;28;20378;-69
2021/06/20 07:32:16;;;;;;;2.67;1.50;;;;;;;;;;8339247;28;20055;-69
2021/06/20 07:36:21;;;;;;;2.60;1.40;;;;;;;;;;8353471;28;20478;-66
2021/06/20 07:40:27;;;;;;;1.55;1.23;;;;;;;;;;8355247;28;20051;-69
2021/06/20 07:44:32;;;;;;;2.63;1.15;;;;;;;;;;8338117;28;20347;-69
2021/06/20 07:48:39;;;;;;;3.15;1.20;;;;;;;;;;8356285;28;20359;-68
2021/06/20 07:52:44;;;;;;;4.25;1.40;;;;;;;;;;8340336;28;20355;-69
2021/06/20 07:56:50;;;;;;;3.08;1.20;;;;;;;;;;8358269;28;20374;-66
2021/06/20 08:00:55;;;;;;;1.80;1.10;;;;;;;;;;8355728;28;20059;-67
2021/06/20 08:05:01;;;;;;;1.97;1.30;;;;;;;;;;8356415;28;20462;-67
2021/06/20 08:09:07;;;;;;;1.73;1.25;;;;;;;;;;8356188;28;20462;-67
2021/06/20 08:13:16;;;;;;;1.30;1.00;;;;;;;;;;8353661;28;20481;-67
2021/06/20 08:17:22;;;;;;;2.13;1.10;;;;;;;;;;8356688;28;20471;-67
2021/06/20 08:21:28;;;;;;;2.47;1.23;;;;;;;;;;8355375;28;20526;-68
2021/06/20 08:25:33;;;;;;;2.08;1.30;;;;;;;;;;8356877;28;20513;-68
2021/06/20 08:29:38;;;;;;;2.85;1.20;;;;;;;;;;8356789;28;20490;-68
2021/06/20 08:33:44;;;;;;;2.38;1.67;;;;;;;;;;8340372;28;20051;-67
2021/06/20 08:37:50;;;;;;;2.70;1.23;;;;;;;;;;8356177;28;20500;-67
2021/06/20 08:41:56;;;;;;;4.80;1.10;;;;;;;;;;8358358;28;20055;-68
2021/06/20 08:46:01;;;;;;;1.83;1.23;;;;;;;;;;8355977;28;20501;-68
2021/06/20 08:50:07;;;;;;;2.53;1.10;;;;;;;;;;8355781;28;20354;-67
2021/06/20 08:54:13;;;;;;;2.45;1.10;;;;;;;;;;8338271;28;20113;-67
2021/06/20 08:58:30;;;;;;;1.73;0.80;;;;;;;;;;8352821;28;20169;-67
2021/06/20 09:02:35;;;;;;;1.30;0.95;;;;;;;;;;8354832;28;20486;-68
2021/06/20 09:06:40;;;;;;;1.87;1.10;;;;;;;;;;8357371;28;20044;-68
2021/06/20 09:10:46;;;;;;;3.33;1.10;;;;;;;;;;8361731;28;20382;-68
2021/06/20 09:14:52;;;;;;;1.77;1.30;;;;;;;;;;8362431;28;20468;-68
2021/06/20 09:18:58;;;;;;;1.52;1.10;;;;;;;;;;8362210;28;20077;-69
2021/06/20 09:23:09;;;;;;;2.75;1.15;;;;;;;;;;8363491;28;20047;-67
2021/06/20 09:27:14;;;;;;;1.65;1.20;;;;;;;;;;8360803;28;20399;-69
2021/06/20 09:31:20;;;;;;;;;;;;;;;;;;8360208;28;20462;-68
2021/06/20 09:35:26;;;;;;;4.55;1.00;;;;;;;;;;8361434;28;20338;-68
2021/06/20 09:39:32;;;;;;;1.15;1.05;;;;;;;;;;8357860;28;20358;-68
2021/06/20 09:43:53;;;;;;;1.38;1.17;;;;;;;;;;8343294;28;20350;-68
2021/06/20 09:47:57;;;;;;;1.90;0.90;;;;;;;;;;8360841;28;20349;-69
2021/06/20 09:52:05;;;;;;;2.70;1.00;;;;;;;;;;8343310;28;20442;-68
2021/06/20 09:56:28;;;;;;;1.88;1.00;;;;;;;;;;8361785;28;20450;-69
2021/06/20 10:00:42;;;;;;;4.75;1.23;;;;;;;;;;8361789;28;20335;-69
2021/06/20 10:04:48;;;;;;;1.27;1.00;;;;;;;;;;8357377;28;20074;-69
2021/06/20 10:08:53;;;;;;;2.95;1.10;;;;;;;;;;8357631;28;20451;-69
2021/06/20 10:12:59;;;;;;;1.48;1.20;;;;;;;;;;8359359;28;20378;-69
2021/06/20 10:17:09;;;;;;;2.05;1.23;;;;;;;;;;8358444;28;20497;-69
2021/06/20 10:21:15;;;;;;;1.70;1.13;;;;;;;;;;8325857;28;20343;-69
2021/06/20 10:25:40;;;;;;;1.93;1.00;;;;;;;;;;8358552;28;20047;-68
2021/06/20 10:29:55;;;;;;;1.50;1.10;;;;;;;;;;8359205;28;20775;-68
2021/06/20 10:34:22;;;;;;;3.17;1.10;;;;;;;;;;8358918;28;20462;-68
2021/06/20 10:38:42;;;;;;;1.20;1.00;;;;;;;;;;8359531;28;20467;-68
2021/06/20 10:42:49;;;;;;;2.03;1.10;;;;;;;;;;8358401;28;20404;-68
2021/06/20 10:46:56;;;;;;;2.20;1.38;;;;;;;;;;8339856;28;20450;-67
2021/06/20 10:51:02;;;;;;;2.65;1.30;;;;;;;;;;8358333;28;20374;-67
2021/06/20 10:55:15;;;;;;;1.20;1.00;;;;;;;;;;8358863;28;20454;-67
2021/06/20 10:59:24;;;;;;;1.45;1.27;;;;;;;;;;8341261;28;20039;-68
2021/06/20 11:03:29;;;;;;;1.27;1.00;;;;;;;;;;8357112;28;20056;-68
2021/06/20 11:08:11;;;;;;;3.08;1.38;;;;;;;;;;8357876;28;20043;-67
2021/06/20 11:12:17;;;;;;;2.10;1.10;;;;;;;;;;8357840;28;20070;-68
2021/06/20 11:16:37;;;;;;;2.05;1.00;;;;;;;;;;8358670;28;20438;-69
2021/06/20 11:20:59;;;;;;;3.20;1.25;;;;;;;;;;8290450;28;20462;-68
2021/06/20 11:25:05;;;;;;;3.08;1.23;;;;;;;;;;8292271;28;20458;-68
2021/06/20 11:29:10;;;;;;;2.72;1.40;;;;;;;;;;8290779;28;20066;-69
2021/06/20 11:33:28;;;;;;;2.35;1.10;;;;;;;;;;8291476;28;20490;-68
2021/06/20 11:37:40;;;;;;;1.73;1.10;;;;;;;;;;8293645;28;20366;-69
2021/06/20 11:41:54;;;;;;;2.33;1.25;;;;;;;;;;8305754;28;20383;-69
2021/06/20 11:45:59;;;;;;;2.83;1.40;;;;;;;;;;8305345;28;20048;-69
2021/06/20 11:50:24;;;;;;;1.83;1.60;;;;;;;;;;8291692;28;20451;-68
2021/06/20 11:54:30;;;;;;;3.65;1.20;;;;;;;;;;8290673;28;20355;-67
2021/06/20 11:58:44;;;;;;;1.67;1.27;;;;;;;;;;8289343;28;20415;-68
2021/06/20 12:03:02;;;;;;;3.03;1.05;;;;;;;;;;8304381;28;20489;-68
2021/06/20 12:07:09;;;;;;;1.73;1.10;;;;;;;;;;8290449;28;20467;-68
2021/06/20 12:11:14;;;;;;;5.55;1.02;;;;;;;;;;8305473;28;20347;-68
2021/06/20 12:15:20;;;;;;;1.25;1.02;;;;;;;;;;8290111;28;20390;-68
2021/06/20 12:19:33;;;;;;;2.08;1.50;;;;;;;;;;8339548;28;20464;-69
2021/06/20 12:23:39;;;;;;;1.08;0.82;;;;;;;;;;8356235;28;20466;-68
2021/06/20 12:27:44;;;;;;;1.83;1.43;;;;;;;;;;8354608;28;20462;-67
2021/06/20 12:32:05;;;;;;;2.05;1.00;;;;;;;;;;8352223;28;20807;-67
2021/06/20 12:36:11;;;;;;;2.30;1.13;;;;;;;;;;8354461;28;20478;-68
2021/06/20 12:40:19;;;;;;;1.90;1.08;;;;;;;;;;8357225;28;20477;-69
2021/06/20 12:44:24;;;;;;;2.08;0.90;;;;;;;;;;8362316;28;20358;-69
2021/06/20 12:48:39;;;;;;;3.38;1.20;;;;;;;;;;8362808;28;20461;-69
2021/06/20 12:52:45;;;;;;;3.55;1.38;;;;;;;;;;8360905;28;20035;-68
2021/06/20 12:57:04;;;;;;;2.45;1.40;;;;;;;;;;8362099;28;20370;-68
2021/06/20 13:01:10;;;;;;;2.20;1.08;;;;;;;;;;8360487;28;20363;-69
2021/06/20 13:05:31;;;;;;;2.55;1.40;;;;;;;;;;8361585;28;20362;-69
2021/06/20 13:09:35;;;;;;;6.35;1.10;;;;;;;;;;8361700;28;20070;-69
2021/06/20 13:13:41;;;;;;;1.92;1.20;;;;;;;;;;8362658;28;20517;-68
2021/06/20 13:17:48;;;;;;;1.38;1.08;;;;;;;;;;8359602;28;20500;-69
2021/06/20 13:21:54;;;;;;;2.20;1.40;;;;;;;;;;8362323;28;20427;-68
2021/06/20 13:26:00;;;;;;;;;;;;;;;;;;8359223;28;20409;-68
2021/06/20 13:30:13;;;;;;;1.85;1.33;;;;;;;;;;8360911;28;20002;-68
2021/06/20 13:34:19;;;;;;;3.25;1.33;;;;;;;;;;8357334;28;20484;-69
2021/06/20 13:38:24;;;;;;;2.20;1.50;;;;;;;;;;8360139;28;20455;-68
2021/06/20 13:42:30;;;;;;;1.80;1.20;;;;;;;;;;8360741;28;20501;-69
2021/06/20 13:46:36;;;;;;;3.80;1.30;;;;;;;;;;8362746;28;20450;-69
2021/06/20 13:50:41;;;;;;;6.40;1.38;;;;;;;;;;8359415;28;20573;-69
2021/06/20 13:54:51;;;;;;;2.28;1.20;;;;;;;;;;8360442;28;20477;-68
2021/06/20 13:58:57;;;;;;;1.83;1.30;;;;;;;;;;8360874;28;20391;-69
2021/06/20 14:03:02;;;;;;;2.50;1.52;;;;;;;;;;8360649;28;20378;-68
2021/06/20 14:07:08;;;;;;;3.67;1.20;;;;;;;;;;8360734;28;20059;-68
2021/06/20 14:11:30;;;;;;;1.50;1.08;;;;;;;;;;8361199;28;20446;-69
2021/06/20 14:15:36;;;;;;;1.43;1.20;;;;;;;;;;8362207;28;20361;-68
2021/06/20 14:19:41;;;;;;;1.63;1.33;;;;;;;;;;8324473;28;20079;-68
2021/06/20 14:23:48;;;;;;;3.27;1.63;;;;;;;;;;8342058;28;20383;-69
2021/06/20 14:33:32;;;;;;;1.60;1.17;;;;;;;;;;8325658;28;20470;-69
2021/06/20 14:37:39;;;;;;;1.67;1.42;;;;;;;;;;8324831;28;20466;-68
2021/06/20 14:41:45;;;;;;;1.38;1.27;;;;;;;;;;8326828;28;20347;-68
2021/06/20 14:45:52;;;;;;;1.55;1.10;;;;;;;;;;8325070;28;20524;-68
2021/06/20 14:49:59;;;;;;;4.18;1.30;;;;;;;;;;8325234;28;20055;-69
2021/06/20 14:54:05;;;;;;;1.92;1.35;;;;;;;;;;8325960;28;20465;-69
2021/06/20 14:58:11;;;;;;;2.23;1.20;;;;;;;;;;8325048;28;20366;-68
2021/06/20 15:02:16;;;;;;;1.63;1.42;;;;;;;;;;8324980;28;20512;-67
2021/06/20 15:06:26;;;;;;;2.78;1.20;;;;;;;;;;8338672;28;20382;-68
2021/06/20 15:10:31;;;;;;;2.60;1.33;;;;;;;;;;8329307;28;20350;-68
2021/06/20 15:14:36;;;;;;;2.88;0.93;;;;;;;;;;8323326;28;20042;-69
2021/06/20 15:18:42;;;;;;;1.50;1.10;;;;;;;;;;8341634;28;20051;-68
2021/06/20 15:22:47;;;;;;;1.83;1.25;;;;;;;;;;8358356;28;20477;-68
2021/06/20 15:26:53;;;;;;;1.83;1.10;;;;;;;;;;8355856;28;20047;-68
2021/06/20 15:30:59;;;;;;;2.83;1.23;;;;;;;;;;8354862;28;20078;-68
2021/06/20 15:35:04;;;;;;;1.38;1.05;;;;;;;;;;8358935;28;20466;-68
2021/06/20 15:39:10;;;;;;;1.90;1.20;;;;;;;;;;8356985;28;20382;-68
2021/06/20 15:43:16;;;;;;;3.22;1.15;;;;;;;;;;8355529;28;20378;-68
2021/06/20 15:47:22;;;;;;;0.90;0.80;;;;;;;;;;8338719;28;20477;-69
2021/06/20 15:51:29;;;;;;;3.42;2.13;;;;;;;;;;8356451;28;20470;-68
2021/06/20 15:55:35;;;;;;;;;;;;;;;;;;8338582;28;20434;-68
2021/06/20 15:59:40;;;;;;;1.20;1.10;;;;;;;;;;8337222;28;20234;-69
2021/06/20 16:03:46;;;;;;;1.35;1.10;;;;;;;;;;8356253;28;20488;-68
2021/06/20 16:07:52;;;;;;;4.97;1.00;;;;;;;;;;8356127;28;20481;-69
2021/06/20 16:11:58;;;;;;;1.45;1.30;;;;;;;;;;8338759;28;20354;-69
2021/06/20 16:16:04;;;;;;;2.83;1.80;;;;;;;;;;8354354;28;20043;-68
2021/06/20 16:20:12;;;;;;;1.13;1.02;;;;;;;;;;8356906;28;20324;-68
2021/06/20 16:24:18;;;;;;;1.42;1.00;;;;;;;;;;8357408;28;20481;-68
2021/06/20 16:28:24;;;;;;;2.45;1.20;;;;;;;;;;8355164;28;20486;-68
2021/06/20 16:32:30;;;;;;;2.37;1.43;;;;;;;;;;8357299;28;20435;-68
2021/06/20 16:36:35;;;;;;;1.77;1.33;;;;;;;;;;8356552;28;20059;-68
2021/06/20 16:40:40;;;;;;;2.28;1.10;;;;;;;;;;8354822;28;20618;-68
2021/06/20 16:44:47;;;;;;;1.30;1.10;;;;;;;;;;8352684;28;20387;-69
2021/06/20 16:48:51;;;;;;;1.27;1.10;;;;;;;;;;8352931;28;20039;-68
2021/06/20 16:52:56;;;;;;;1.17;0.77;;;;;;;;;;8353651;28;20484;-69
2021/06/20 16:57:02;;;;;;;2.05;1.25;;;;;;;;;;8355752;28;20454;-68
2021/06/20 17:01:07;;;;;;;4.78;1.55;;;;;;;;;;8353767;28;20412;-68
2021/06/20 17:05:17;;;;;;;2.13;1.70;;;;;;;;;;8355688;28;20077;-69
2021/06/20 17:09:24;;;;;;;3.67;1.85;;;;;;;;;;8354205;28;20474;-68
2021/06/20 17:13:29;;;;;;;0.93;0.85;;;;;;;;;;8337815;28;20381;-69
2021/06/20 17:17:35;;;;;;;2.33;1.30;;;;;;;;;;8354544;28;20378;-69
2021/06/20 17:21:40;;;;;;;5.57;1.70;;;;;;;;;;8354366;28;20048;-69
2021/06/20 17:25:45;;;;;;;2.05;1.30;;;;;;;;;;8355026;28;20348;-69
2021/06/20 17:29:51;;;;;;;2.05;1.27;;;;;;;;;;8359588;28;20359;-68
2021/06/20 17:33:57;;;;;;;3.13;2.00;;;;;;;;;;8359792;28;20336;-68
2021/06/20 17:38:03;;;;;;;2.72;1.98;;;;;;;;;;8362721;28;20078;-68
2021/06/20 17:42:09;;;;;;;2.45;1.83;;;;;;;;;;8360433;28;20371;-68
2021/06/20 17:46:14;;;;;;;1.17;0.98;;;;;;;;;;8361044;28;20485;-68
2021/06/20 17:50:21;;;;;;;1.75;1.30;;;;;;;;;;8361105;28;20478;-68
2021/06/20 17:54:27;;;;;;;4.78;1.65;;;;;;;;;;8342733;28;20456;-68
2021/06/20 17:58:33;;;;;;;3.78;1.80;;;;;;;;;;8358295;28;20052;-68
2021/06/20 18:02:39;;;;;;;3.25;1.52;;;;;;;;;;8360309;28;20462;-68
2021/06/20 18:06:44;;;;;;;2.78;1.38;;;;;;;;;;8359885;28;20077;-67
2021/06/20 18:10:50;;;;;;;2.88;1.17;;;;;;;;;;8360343;28;20400;-68
2021/06/20 18:14:56;;;;;;;2.20;1.20;;;;;;;;;;8359437;28;20355;-67
2021/06/20 18:19:02;;;;;;;5.88;2.75;;;;;;;;;;8325185;28;20592;-67
2021/06/20 18:23:10;;;;;;;4.47;2.58;;;;;;;;;;8340029;28;20399;-67
2021/06/20 18:27:20;;;;;;;11.85;2.10;;;;;;;;;;8328003;28;20355;-69
2021/06/20 18:31:25;;;;;;;12.65;3.85;;;;;;;;;;8326026;28;20391;-69
2021/06/20 18:35:31;;;;;;;5.90;2.95;;;;;;;;;;8325543;28;20107;-69
2021/06/20 18:39:36;;;;;;;15.50;4.38;;;;;;;;;;8326097;28;20366;-69
2021/06/20 18:43:42;;;;;;;7.20;2.70;;;;;;;;;;8325211;28;20383;-69
2021/06/20 18:47:47;;;;;;;6.13;3.08;;;;;;;;;;8326177;28;20048;-69
2021/06/20 18:51:53;;;;;;;7.40;4.13;;;;;;;;;;8326034;28;20463;-69
2021/06/20 18:55:58;;;;;;;4.20;2.63;;;;;;;;;;8325006;28;20494;-69
2021/06/20 19:00:11;;;;;;;5.25;2.92;;;;;;;;;;8325102;28;20064;-70
2021/06/20 19:04:17;;;;;;;7.65;2.15;;;;;;;;;;8323051;28;20074;-69
2021/06/20 19:08:22;;;;;;;6.97;4.13;;;;;;;;;;8324860;28;20482;-67
2021/06/20 19:12:30;;;;;;;9.13;3.03;;;;;;;;;;8327640;28;20372;-67
2021/06/20 19:16:35;;;;;;;10.18;4.97;;;;;;;;;;8324413;28;20502;-68
2021/06/20 19:20:41;;;;;;;15.85;4.60;;;;;;;;;;8289594;28;20451;-67
2021/06/20 19:24:47;;;;;;;8.52;2.47;;;;;;;;;;8292068;28;20513;-68
2021/06/20 19:28:52;;;;;;;11.52;3.35;;;;;;;;;;8288692;28;20345;-67
2021/06/20 19:32:58;;;;;;;17.02;4.57;;;;;;;;;;8290179;28;20367;-68
2021/06/20 19:37:03;;;;;;;11.75;3.13;;;;;;;;;;8290315;28;20067;-68
2021/06/20 19:41:09;;;;;;;6.93;3.13;;;;;;;;;;8290745;28;20494;-67
2021/06/20 19:45:15;;;;;;;4.35;2.40;;;;;;;;;;8290637;28;20052;-67
2021/06/20 19:49:21;;;;;;;6.05;2.50;;;;;;;;;;8289281;28;20065;-68
2021/06/20 19:53:27;;;;;;;5.90;2.30;;;;;;;;;;8290556;28;20366;-68
2021/06/20 19:57:34;;;;;;;3.10;2.25;;;;;;;;;;8291741;28;20367;-68
2021/06/20 20:01:40;;;;;;;4.82;2.30;;;;;;;;;;8290685;28;20420;-68
2021/06/20 20:05:45;;;;;;;4.60;2.55;;;;;;;;;;8290511;28;20379;-68
2021/06/20 20:09:51;;;;;;;2.78;1.92;;;;;;;;;;8272653;28;20533;-67
2021/06/20 20:13:56;;;;;;;4.70;2.17;;;;;;;;;;8290011;28;20436;-68
2021/06/20 20:18:01;;;;;;;6.35;2.30;;;;;;;;;;8312661;28;20455;-68
2021/06/20 20:22:07;;;;;;;6.55;2.00;;;;;;;;;;8354949;28;20438;-68
2021/06/20 20:26:13;;;;;;;5.32;2.60;;;;;;;;;;8356229;28;20336;-68
2021/06/20 20:30:19;;;;;;;3.90;2.17;;;;;;;;;;8357769;28;20378;-68
2021/06/20 20:34:26;;;;;;;4.88;2.25;;;;;;;;;;8356831;28;20106;-68
2021/06/20 20:38:31;;;;;;;5.05;2.47;;;;;;;;;;8356623;28;20378;-68
2021/06/20 20:42:39;;;;;;;2.90;2.13;;;;;;;;;;8355377;28;20478;-68
2021/06/20 20:46:46;;;;;;;;;;;;;;;;;;8357018;28;20397;-68
2021/06/20 20:50:53;;;;;;;6.68;2.40;;;;;;;;;;8356797;28;19920;-68
2021/06/20 20:54:59;;;;;;;3.45;2.30;;;;;;;;;;8356669;28;20466;-69
2021/06/20 20:59:05;;;;;;;9.40;2.60;;;;;;;;;;8338042;28;20078;-68
2021/06/20 21:03:10;;;;;;;5.03;2.88;;;;;;;;;;8356671;28;20075;-68
2021/06/20 21:07:16;;;;;;;5.50;2.75;;;;;;;;;;8363775;28;20354;-68
2021/06/20 21:11:21;;;;;;;6.57;3.00;;;;;;;;;;8328630;28;20505;-68
2021/06/20 21:15:27;;;;;;;7.38;2.80;;;;;;;;;;8361659;28;20369;-68
2021/06/20 21:19:32;;;;;;;5.55;2.70;;;;;;;;;;8362242;28;20381;-68
2021/06/20 21:23:39;;;;;;;4.13;3.15;;;;;;;;;;8360320;28;20408;-68
2021/06/20 21:27:44;;;;;;;4.43;2.50;;;;;;;;;;8361630;28;20470;-67
2021/06/20 21:31:50;;;;;;;4.80;2.72;;;;;;;;;;8361468;28;20043;-68
2021/06/20 21:35:56;;;;;;;6.72;2.90;;;;;;;;;;8361458;28;20382;-69
2021/06/20 21:40:02;;;;;;;4.65;3.00;;;;;;;;;;8360394;28;20470;-67
2021/06/20 21:44:08;;;;;;;6.15;2.40;;;;;;;;;;8342699;28;20474;-68
2021/06/20 21:48:13;;;;;;;7.15;3.05;;;;;;;;;;8360858;28;20474;-68
2021/06/20 21:52:18;;;;;;;11.05;3.00;;;;;;;;;;8360383;28;20347;-67
2021/06/20 21:56:24;;;;;;;7.15;3.63;;;;;;;;;;8358497;28;20460;-67
2021/06/20 22:00:36;;;;;;;6.70;3.63;;;;;;;;;;8361031;28;20099;-68
2021/06/20 22:04:40;;;;;;;6.03;3.40;;;;;;;;;;8360623;28;20485;-67
2021/06/20 22:08:46;;;;;;;6.70;3.80;;;;;;;;;;8358905;28;20371;-67
2021/06/20 22:12:53;;;;;;;4.30;3.00;;;;;;;;;;8359884;28;20043;-68
2021/06/20 22:16:59;;;;;;;9.23;3.22;;;;;;;;;;8359426;28;20473;-68
2021/06/20 22:21:03;;;;;;;5.43;3.60;;;;;;;;;;8360078;28;20508;-68
2021/06/20 22:25:11;;;;;;;5.22;3.28;;;;;;;;;;8360550;28;20404;-68
2021/06/20 22:29:17;;;;;;;3.40;3.10;;;;;;;;;;8358624;28;20454;-67
2021/06/20 22:33:25;;;;;;;5.53;3.45;;;;;;;;;;8341670;28;20052;-67
2021/06/20 22:37:30;;;;;;;5.88;3.80;;;;;;;;;;8358442;28;20505;-68
2021/06/20 22:41:37;;;;;;;7.93;3.55;;;;;;;;;;8359586;28;20462;-68
2021/06/20 22:45:42;;;;;;;11.38;7.03;;;;;;;;;;8359550;28;20396;-68
2021/06/20 22:49:48;;;;;;;6.05;3.63;;;;;;;;;;8360058;28;20437;-68
2021/06/20 22:53:53;;;;;;;7.30;4.00;;;;;;;;;;8358810;28;20048;-68
2021/06/20 22:57:59;;;;;;;7.78;3.53;;;;;;;;;;8357175;28;20331;-68
2021/06/20 23:02:05;;;;;;;5.65;4.18;;;;;;;;;;8360128;28;20574;-68
2021/06/20 23:06:11;;;;;;;5.35;3.58;;;;;;;;;;8357458;28;20450;-69
2021/06/20 23:10:17;;;;;;;7.10;4.28;;;;;;;;;;8357602;28;20390;-68
2021/06/20 23:14:23;;;;;;;5.60;4.00;;;;;;;;;;8357864;28;20385;-68
2021/06/20 23:18:28;;;;;;;8.88;4.47;;;;;;;;;;8357648;28;20044;-68
2021/06/20 23:22:34;;;;;;;5.00;3.75;;;;;;;;;;8339928;28;20369;-68
2021/06/20 23:26:41;;;;;;;8.38;4.20;;;;;;;;;;8357035;28;20073;-67
2021/06/20 23:30:49;;;;;;;6.90;3.55;;;;;;;;;;8357199;28;20362;-68
2021/06/20 23:34:54;;;;;;;5.33;3.50;;;;;;;;;;8356786;28;20368;-68
2021/06/20 23:39:02;;;;;;;7.28;3.63;;;;;;;;;;8356977;28;20366;-68
2021/06/20 23:43:06;;;;;;;7.10;4.03;;;;;;;;;;8358827;28;20454;-67
2021/06/20 23:47:12;;;;;;;6.15;3.67;;;;;;;;;;8358019;28;20324;-68
2021/06/20 23:51:18;;;;;;;4.78;3.65;;;;;;;;;;8356521;28;20382;-67
2021/06/20 23:55:24;;;;;;;4.35;3.75;;;;;;;;;;8357637;28;20067;-68
2021/06/20 23:59:29;;;;;;;6.18;3.85;;;;;;;;;;8356872;28;20378;-67
